Time;durP1;ratioP1;P1;durP2;ratioP2;P2;SDS_P1;SDS_P2;PMS_P1;PMS_P2;Temp;Humidity;BMP_temperature;BMP_pressure;BME280_temperature;BME280_humidity;BME280_pressure;Samples;Min_cycle;Max_cycle;Signal;HPM_P1;HPM_P2
2023/10/30 00:00:54;;;;;;;1.35;0.73;;;10.20;97.60;;;;;;6202174;22;20020;-91
2023/10/30 00:04:18;;;;;;;;;;;;;;;;;;;;;
2023/10/30 00:11:49;;;;;;;0.38;0.10;;;10.10;97.70;;;;;;5952640;24;20096;-93
2023/10/30 00:15:33;;;;;;;;;;;;;;;;;;;;;
2023/10/30 00:19:05;;;;;;;;;;;;;;;;;;;;;
2023/10/30 00:22:12;;;;;;;;;;;;;;;;;;;;;
2023/10/30 00:25:38;;;;;;;0.40;0.20;;;10.10;97.80;;;;;;5889241;24;20362;-93
2023/10/30 00:30:02;;;;;;;;;;;;;;;;;;;;;
2023/10/30 00:34:04;;;;;;;;;;;;;;;;;;;;;
2023/10/30 00:37:11;;;;;;;;;;;;;;;;;;;;;
2023/10/30 00:49:06;;;;;;;;;;;;;;;;;;;;;
2023/10/30 00:56:27;;;;;;;1.98;0.22;;;10.40;97.70;;;;;;5876650;24;20024;-94
2023/10/30 00:59:59;;;;;;;1.40;0.30;;;10.40;97.70;;;;;;5983444;23;20111;-92
2023/10/30 01:03:25;;;;;;;;;;;;;;;;;;;;;
2023/10/30 01:06:46;;;;;;;2.20;0.43;;;10.50;97.70;;;;;;6000119;23;20018;-93
2023/10/30 01:10:38;;;;;;;;;;;;;;;;;;;;;
2023/10/30 01:13:41;;;;;;;3.00;0.55;;;10.50;97.70;;;;;;6058325;23;20105;-92
2023/10/30 01:17:53;;;;;;;1.40;0.20;;;10.50;97.70;;;;;;5944680;24;20034;-93
2023/10/30 01:21:20;;;;;;;;;;;;;;;;;;;;;
2023/10/30 01:25:11;;;;;;;;;;;;;;;;;;;;;
2023/10/30 01:29:20;;;;;;;;;;;;;;;;;;;;;
2023/10/30 01:32:28;;;;;;;2.10;0.30;;;10.60;97.80;;;;;;6102683;23;20560;-93
2023/10/30 01:36:00;;;;;;;1.83;0.40;;;10.60;97.70;;;;;;6065493;23;20026;-92
2023/10/30 01:44:08;;;;;;;;;;;;;;;;;;;;;
2023/10/30 01:48:02;;;;;;;;;;;;;;;;;;;;;
2023/10/30 01:51:17;;;;;;;;;;;10.50;97.90;;;;;;6030692;23;20027;-93
2023/10/30 01:54:42;;;;;;;3.13;0.47;;;10.60;97.90;;;;;;6034713;23;19921;-93
2023/10/30 01:57:44;;;;;;;5.28;0.82;;;10.60;97.90;;;;;;5999852;23;20429;-91
2023/10/30 02:01:19;;;;;;;1.88;0.25;;;10.60;97.90;;;;;;5963253;24;20098;-92
2023/10/30 02:07:54;;;;;;;2.47;0.32;;;10.70;97.90;;;;;;5926460;24;20100;-90
2023/10/30 02:14:39;;;;;;;2.58;0.40;;;10.70;97.90;;;;;;6334974;22;20023;-90
2023/10/30 02:18:39;;;;;;;;;;;;;;;;;;;;;
2023/10/30 02:25:34;;;;;;;;;;;;;;;;;;;;;
2023/10/30 02:29:01;;;;;;;3.20;0.30;;;10.90;97.90;;;;;;6206942;22;20021;-91
2023/10/30 02:32:56;;;;;;;;;;;;;;;;;;;;;
2023/10/30 02:35:54;;;;;;;1.20;0.28;;;10.90;97.90;;;;;;6172353;23;20088;-91
2023/10/30 02:39:43;;;;;;;1.15;0.50;;;10.90;97.90;;;;;;6150464;23;20021;-91
2023/10/30 02:42:30;;;;;;;0.68;0.20;;;10.90;97.90;;;;;;6188549;23;20020;-90
2023/10/30 02:49:40;;;;;;;4.55;0.40;;;10.80;98.10;;;;;;6238785;22;20015;-90
2023/10/30 02:53:05;;;;;;;;;;;;;;;;;;;;;
2023/10/30 02:56:30;;;;;;;2.72;0.30;;;10.90;97.90;;;;;;6308199;22;20019;-91
2023/10/30 02:59:44;;;;;;;3.05;0.20;;;10.90;98.00;;;;;;6329787;22;20024;-93
2023/10/30 03:03:29;;;;;;;1.27;0.50;;;10.90;98.00;;;;;;6317729;22;20022;-94
2023/10/30 03:06:22;;;;;;;0.95;0.22;;;10.90;98.00;;;;;;6302399;22;20029;-93
2023/10/30 03:09:43;;;;;;;2.15;0.50;;;10.80;98.10;;;;;;6197931;23;20020;-94
2023/10/30 03:12:38;;;;;;;5.65;0.60;;;10.90;98.10;;;;;;6223269;22;20024;-93
2023/10/30 03:15:49;;;;;;;;;;;;;;;;;;;;;
2023/10/30 03:19:48;;;;;;;;;;;;;;;;;;;;;
2023/10/30 03:44:19;;;;;;;1.23;0.10;;;10.70;98.20;;;;;;6068856;23;20038;-92
2023/10/30 04:02:08;;;;;;;1.17;0.20;;;10.60;98.30;;;;;;5586070;22;15079656;-92
2023/10/30 04:04:47;;;;;;;1.25;0.17;;;10.20;98.60;;;;;;6184224;23;20096;-92
2023/10/30 04:07:57;;;;;;;;;;;;;;;;;;;;;
2023/10/30 04:11:28;;;;;;;;;;;;;;;;;;;;;
2023/10/30 04:14:49;;;;;;;0.40;0.10;;;10.20;98.70;;;;;;6172560;23;20334;-92
2023/10/30 04:17:47;;;;;;;0.45;0.10;;;10.10;98.70;;;;;;6146912;23;20017;-92
2023/10/30 04:21:37;;;;;;;;;;;;;;;;;;;;;
2023/10/30 04:29:27;;;;;;;;;;;;;;;;;;;;;
2023/10/30 04:33:07;;;;;;;;;;;;;;;;;;;;;
2023/10/30 04:36:27;;;;;;;;;;;;;;;;;;;;;
2023/10/30 04:44:24;;;;;;;0.75;0.10;;;9.70;99.10;;;;;;5904068;24;20130;-93
2023/10/30 05:06:48;;;;;;;;;;;;;;;;;;;;;
2023/10/30 05:09:53;;;;;;;;;;;;;;;;;;;;;
2023/10/30 05:13:00;;;;;;;1.15;0.63;;;9.40;99.30;;;;;;5939570;24;20021;-94
2023/10/30 05:19:42;;;;;;;1.00;0.10;;;9.40;99.30;;;;;;6045721;23;20548;-94
2023/10/30 05:26:53;;;;;;;0.20;0.00;;;9.40;99.30;;;;;;6029087;23;20019;-93
2023/10/30 05:35:21;;;;;;;1.33;0.20;;;9.40;99.30;;;;;;6046025;23;20098;-94
2023/10/30 05:38:54;;;;;;;0.55;0.17;;;9.40;99.30;;;;;;6024479;23;20022;-94
2023/10/30 05:42:36;;;;;;;1.42;0.17;;;9.40;99.30;;;;;;6000043;23;20474;-94
2023/10/30 05:46:37;;;;;;;;;;;;;;;;;;;;;
2023/10/30 05:49:45;;;;;;;1.55;0.10;;;9.50;99.40;;;;;;5842245;24;20026;-94
2023/10/30 05:53:49;;;;;;;;;;;;;;;;;;;;;
2023/10/30 05:57:47;;;;;;;0.75;0.10;;;9.50;99.40;;;;;;5942373;24;20407;-93
2023/10/30 06:01:27;;;;;;;1.33;0.17;;;9.50;99.40;;;;;;5906841;24;20059;-93
2023/10/30 06:05:18;;;;;;;;;;;;;;;;;;;;;
2023/10/30 06:08:57;;;;;;;;;;;;;;;;;;;;;
2023/10/30 06:12:31;;;;;;;0.60;0.10;;;9.30;99.50;;;;;;5950094;23;20332;-94
2023/10/30 06:16:00;;;;;;;0.35;0.00;;;9.30;99.50;;;;;;6125121;23;20032;-95
2023/10/30 06:22:59;;;;;;;1.08;0.00;;;9.30;99.60;;;;;;6122321;23;20097;-93
2023/10/30 06:25:54;;;;;;;0.45;0.10;;;9.30;99.50;;;;;;6091530;23;20045;-93
2023/10/30 06:33:17;;;;;;;;;;;;;;;;;;;;;
2023/10/30 06:41:55;;;;;;;0.82;0.10;;;9.10;99.60;;;;;;6038975;23;20018;-93
2023/10/30 06:44:37;;;;;;;0.22;0.10;;;9.10;99.60;;;;;;5995131;23;20042;-93
2023/10/30 06:48:20;;;;;;;;;;;;;;;;;;;;;
2023/10/30 06:55:54;;;;;;;;;;;;;;;;;;;;;
2023/10/30 06:59:25;;;;;;;0.45;0.08;;;9.10;99.70;;;;;;5926597;24;20012;-93
2023/10/30 07:02:40;;;;;;;0.35;0.10;;;9.10;99.70;;;;;;5914896;24;20011;-93
2023/10/30 07:06:40;;;;;;;;;;;;;;;;;;;;;
2023/10/30 07:09:38;;;;;;;2.92;0.40;;;9.20;99.70;;;;;;5954367;24;20053;-93
2023/10/30 07:12:52;;;;;;;;;;;;;;;;;;;;;
2023/10/30 07:16:27;;;;;;;1.05;0.10;;;9.30;99.60;;;;;;5899376;24;20101;-93
2023/10/30 07:20:40;;;;;;;1.25;0.30;;;9.40;99.60;;;;;;5972189;23;20019;-92
2023/10/30 07:23:39;;;;;;;;;;;9.40;99.60;;;;;;6035637;23;20030;-93
2023/10/30 07:26:37;;;;;;;0.40;0.10;;;9.40;99.60;;;;;;6066245;23;19917;-92
2023/10/30 07:29:40;;;;;;;1.85;0.30;;;9.50;99.50;;;;;;6067961;23;20018;-91
2023/10/30 07:32:31;;;;;;;;;;;;;;;;;;;;;
2023/10/30 07:36:01;;;;;;;;;;;;;;;;;;;;;
2023/10/30 07:38:56;;;;;;;;;;;;;;;;;;;;;
2023/10/30 07:42:16;;;;;;;0.75;0.20;;;9.90;99.30;;;;;;6024618;23;20027;-93
2023/10/30 07:45:58;;;;;;;;;;;;;;;;;;;;;
2023/10/30 07:49:41;;;;;;;;;;;;;;;;;;;;;
2023/10/30 08:08:17;;;;;;;2.90;0.30;;;10.20;99.40;;;;;;5879770;24;20405;-93
2023/10/30 08:11:50;;;;;;;;;;;;;;;;;;;;;
2023/10/30 08:14:34;;;;;;;4.82;0.40;;;10.40;99.30;;;;;;5875115;24;20092;-93
2023/10/30 08:18:14;;;;;;;3.50;0.40;;;10.50;99.30;;;;;;5888827;24;20089;-92
2023/10/30 08:21:30;;;;;;;2.83;0.60;;;10.70;99.20;;;;;;5960062;23;20189;-92
2023/10/30 08:32:03;;;;;;;1.58;0.63;;;11.00;99.00;;;;;;6076024;23;20071;-88
2023/10/30 08:35:18;;;;;;;2.65;0.50;;;11.20;98.90;;;;;;6068601;23;20022;-94
2023/10/30 08:38:40;;;;;;;;;;;;;;;;;;;;;
2023/10/30 08:41:45;;;;;;;4.18;1.17;;;11.50;98.80;;;;;;5929846;23;20019;-85
2023/10/30 08:44:13;;;;;;;2.95;0.50;;;11.60;98.70;;;;;;6092822;23;20442;-87
2023/10/30 08:51:41;;;;;;;3.53;0.63;;;11.90;98.60;;;;;;6069364;23;20098;-87
2023/10/30 09:03:25;;;;;;;;;;;;;;;;;;;;;
2023/10/30 09:07:32;;;;;;;2.30;0.50;;;12.30;98.30;;;;;;5903082;24;20449;-92
2023/10/30 09:09:58;;;;;;;2.67;0.70;;;12.40;98.20;;;;;;5854670;24;20019;-85
2023/10/30 09:12:27;;;;;;;5.53;0.60;;;12.50;98.20;;;;;;5958633;24;20024;-85
2023/10/30 09:14:54;;;;;;;2.85;0.47;;;12.60;98.20;;;;;;6042175;23;20023;-86
2023/10/30 09:17:21;;;;;;;2.15;0.20;;;12.60;98.10;;;;;;6044030;23;20023;-86
2023/10/30 09:19:49;;;;;;;5.47;0.43;;;12.70;98.20;;;;;;6043752;23;20023;-88
2023/10/30 09:22:16;;;;;;;2.03;0.40;;;12.70;98.10;;;;;;6044146;23;20067;-88
2023/10/30 09:25:40;;;;;;;;;;;;;;;;;;;;;
2023/10/30 09:29:22;;;;;;;;;;;;;;;;;;;;;
2023/10/30 09:33:23;;;;;;;;;;;;;;;;;;;;;
2023/10/30 09:37:13;;;;;;;3.60;0.55;;;13.10;98.00;;;;;;6012565;23;20018;-95
2023/10/30 09:39:44;;;;;;;1.33;0.60;;;13.20;97.70;;;;;;6010405;23;20027;-87
2023/10/30 09:47:54;;;;;;;0.93;0.30;;;13.30;97.60;;;;;;6160691;23;20032;-96
2023/10/30 09:51:25;;;;;;;;;;;;;;;;;;;;;
2023/10/30 09:54:44;;;;;;;2.15;0.40;;;13.50;97.40;;;;;;6160557;23;20029;-87
2023/10/30 10:00:48;;;;;;;1.13;0.30;;;13.70;97.30;;;;;;6131269;23;20088;-87
2023/10/30 10:03:16;;;;;;;2.53;0.30;;;13.70;97.30;;;;;;6131041;23;20447;-86
2023/10/30 10:05:53;;;;;;;4.38;0.30;;;13.70;97.30;;;;;;6106820;23;20036;-88
2023/10/30 10:08:24;;;;;;;2.53;0.30;;;13.70;97.30;;;;;;6132463;23;20018;-94
2023/10/30 10:11:19;;;;;;;1.45;0.38;;;13.80;97.30;;;;;;6153362;23;20356;-93
2023/10/30 10:13:48;;;;;;;3.20;0.35;;;13.80;97.30;;;;;;6130884;23;20368;-88
2023/10/30 10:16:35;;;;;;;3.10;0.35;;;13.80;97.30;;;;;;6131400;23;20109;-89
2023/10/30 10:19:22;;;;;;;4.57;1.08;;;13.80;97.30;;;;;;6131051;23;20021;-89
2023/10/30 10:21:52;;;;;;;5.05;0.30;;;13.80;97.30;;;;;;6107301;23;20088;-89
2023/10/30 10:24:32;;;;;;;3.40;0.38;;;13.80;97.30;;;;;;6131636;23;20108;-88
2023/10/30 10:27:06;;;;;;;2.55;0.32;;;13.80;97.20;;;;;;6106817;23;20470;-91
2023/10/30 10:29:34;;;;;;;1.00;0.25;;;13.90;97.20;;;;;;6155477;23;20025;-87
2023/10/30 10:32:01;;;;;;;2.63;0.22;;;13.90;97.20;;;;;;6130265;23;20056;-85
2023/10/30 10:34:33;;;;;;;4.93;0.40;;;13.90;97.10;;;;;;6106011;23;20469;-84
2023/10/30 10:37:01;;;;;;;1.42;0.25;;;13.90;97.10;;;;;;6155054;23;20021;-88
2023/10/30 10:39:55;;;;;;;4.22;0.80;;;13.90;97.20;;;;;;6131065;23;20025;-89
2023/10/30 10:42:25;;;;;;;3.60;0.63;;;14.00;97.10;;;;;;6130690;23;20028;-86
2023/10/30 10:44:54;;;;;;;5.15;0.47;;;13.90;97.10;;;;;;6130953;23;20104;-85
2023/10/30 10:47:22;;;;;;;2.38;0.43;;;13.90;97.10;;;;;;6156153;23;20021;-85
2023/10/30 10:49:50;;;;;;;1.05;0.20;;;14.00;97.20;;;;;;6130915;23;20021;-82
2023/10/30 10:52:20;;;;;;;3.13;0.60;;;14.00;97.10;;;;;;6131088;23;20068;-85
2023/10/30 10:55:04;;;;;;;2.28;0.20;;;14.00;97.10;;;;;;6130379;23;20022;-82
2023/10/30 10:57:49;;;;;;;1.90;0.30;;;14.00;97.10;;;;;;6107149;23;20025;-86
2023/10/30 11:00:18;;;;;;;2.55;0.40;;;14.00;97.20;;;;;;6154975;23;20022;-86
2023/10/30 11:02:50;;;;;;;3.95;0.30;;;14.00;97.20;;;;;;6082834;23;20072;-84
2023/10/30 11:05:17;;;;;;;1.98;0.30;;;14.10;97.10;;;;;;6155926;23;20025;-86
2023/10/30 11:08:00;;;;;;;1.88;0.30;;;14.10;97.10;;;;;;6106036;23;20104;-86
2023/10/30 11:10:35;;;;;;;1.45;0.20;;;14.20;96.90;;;;;;6154839;23;20356;-86
2023/10/30 11:13:28;;;;;;;2.30;0.20;;;14.30;96.90;;;;;;6130494;23;20026;-81
2023/10/30 11:16:09;;;;;;;4.53;0.40;;;14.40;96.80;;;;;;6130613;23;20467;-81
2023/10/30 11:18:38;;;;;;;4.55;0.30;;;14.50;96.80;;;;;;6130262;23;20022;-81
2023/10/30 11:21:17;;;;;;;1.88;0.17;;;14.50;96.80;;;;;;6130099;23;20025;-82
2023/10/30 11:23:44;;;;;;;1.73;0.20;;;14.50;96.70;;;;;;6130336;23;20076;-82
2023/10/30 11:26:30;;;;;;;3.05;0.30;;;14.50;96.70;;;;;;6106640;23;20329;-87
2023/10/30 11:29:00;;;;;;;2.13;0.20;;;14.60;96.70;;;;;;6106320;23;20017;-86
2023/10/30 11:31:32;;;;;;;3.95;0.32;;;14.50;96.70;;;;;;6130207;23;20021;-84
2023/10/30 11:34:12;;;;;;;3.38;0.50;;;14.50;96.70;;;;;;6154473;23;20105;-84
2023/10/30 11:36:41;;;;;;;3.55;0.40;;;14.60;96.60;;;;;;6130457;23;20440;-83
2023/10/30 11:39:11;;;;;;;2.13;0.30;;;14.70;96.60;;;;;;6155525;23;20013;-84
2023/10/30 11:41:45;;;;;;;4.75;0.60;;;14.70;96.50;;;;;;6130345;23;20021;-84
2023/10/30 11:44:13;;;;;;;1.27;0.30;;;14.70;96.20;;;;;;6131660;23;20025;-84
2023/10/30 11:46:42;;;;;;;4.78;0.52;;;14.70;96.30;;;;;;6131815;23;20021;-85
2023/10/30 11:49:18;;;;;;;3.78;0.45;;;14.80;96.20;;;;;;6132273;23;20462;-84
2023/10/30 11:51:49;;;;;;;3.60;0.35;;;14.80;96.20;;;;;;6130091;23;20024;-84
2023/10/30 11:54:23;;;;;;;2.53;0.32;;;14.80;96.20;;;;;;6129773;23;20030;-89
2023/10/30 11:56:51;;;;;;;4.75;0.40;;;14.80;96.20;;;;;;6129793;23;20017;-85
2023/10/30 11:59:20;;;;;;;3.50;0.98;;;14.80;96.00;;;;;;6129772;23;20018;-83
2023/10/30 12:01:51;;;;;;;3.47;0.40;;;14.70;96.00;;;;;;6129901;23;20053;-84
2023/10/30 12:04:22;;;;;;;2.80;0.40;;;14.70;96.10;;;;;;6154363;23;20021;-85
2023/10/30 12:06:49;;;;;;;2.17;0.45;;;14.60;96.20;;;;;;6129743;23;20025;-84
2023/10/30 12:09:21;;;;;;;2.70;0.38;;;14.50;96.30;;;;;;6129855;23;20142;-85
2023/10/30 12:11:55;;;;;;;2.80;0.50;;;14.40;96.40;;;;;;6131002;23;20075;-86
2023/10/30 12:14:23;;;;;;;1.30;0.50;;;14.40;96.50;;;;;;6133171;23;20030;-92
2023/10/30 12:16:52;;;;;;;2.83;0.30;;;14.30;96.50;;;;;;6135170;23;20014;-91
2023/10/30 12:19:23;;;;;;;2.03;0.40;;;14.30;96.60;;;;;;6110460;23;20441;-91
2023/10/30 12:21:52;;;;;;;2.38;0.32;;;14.20;96.70;;;;;;6157970;23;20021;-91
2023/10/30 12:24:25;;;;;;;2.30;0.35;;;14.20;96.70;;;;;;6109594;23;20451;-90
2023/10/30 12:26:53;;;;;;;1.95;0.20;;;14.20;96.80;;;;;;6157371;23;20326;-88
2023/10/30 12:29:28;;;;;;;3.70;0.98;;;14.20;97.10;;;;;;6108021;23;20029;-89
2023/10/30 12:32:02;;;;;;;2.63;0.30;;;14.30;96.80;;;;;;6132071;23;20014;-86
2023/10/30 12:34:34;;;;;;;1.77;0.77;;;14.30;96.80;;;;;;6107999;23;20021;-85
2023/10/30 12:37:23;;;;;;;2.30;0.20;;;14.30;96.80;;;;;;6108329;23;20021;-88
2023/10/30 12:40:12;;;;;;;1.40;0.10;;;14.30;96.80;;;;;;6132236;23;20269;-86
2023/10/30 12:42:41;;;;;;;1.77;0.20;;;14.30;96.90;;;;;;6132828;23;20025;-86
2023/10/30 12:45:12;;;;;;;2.28;0.20;;;14.30;97.20;;;;;;6132425;23;20045;-90
2023/10/30 12:47:41;;;;;;;1.27;0.20;;;14.40;96.90;;;;;;6156527;23;20026;-87
2023/10/30 12:50:11;;;;;;;1.30;0.20;;;14.30;96.90;;;;;;6131364;23;20112;-87
2023/10/30 12:52:40;;;;;;;1.52;0.20;;;14.30;96.90;;;;;;6132204;23;20100;-86
2023/10/30 12:55:08;;;;;;;1.35;0.20;;;14.30;97.00;;;;;;6157668;23;20021;-87
2023/10/30 12:57:37;;;;;;;1.00;0.10;;;14.30;97.00;;;;;;6132720;23;20072;-87
2023/10/30 13:00:07;;;;;;;0.80;0.20;;;14.30;97.10;;;;;;6108603;23;20047;-83
2023/10/30 13:02:34;;;;;;;1.23;0.35;;;14.30;97.10;;;;;;6132153;23;20031;-84
2023/10/30 13:05:02;;;;;;;1.40;0.20;;;14.30;97.20;;;;;;6131322;23;20026;-85
2023/10/30 13:07:29;;;;;;;0.93;0.20;;;14.30;97.20;;;;;;6155878;23;20100;-84
2023/10/30 13:09:56;;;;;;;3.70;0.25;;;14.30;97.20;;;;;;6083355;23;20029;-84
2023/10/30 13:12:24;;;;;;;0.22;0.10;;;14.30;97.30;;;;;;6131259;23;20065;-83
2023/10/30 13:14:51;;;;;;;1.02;0.10;;;14.30;97.30;;;;;;6107034;23;20047;-85
2023/10/30 13:17:18;;;;;;;1.08;0.20;;;14.30;97.30;;;;;;6107098;23;20017;-83
2023/10/30 13:19:46;;;;;;;0.90;0.20;;;14.30;97.30;;;;;;6155639;23;20112;-83
2023/10/30 13:22:13;;;;;;;2.05;0.10;;;14.30;97.30;;;;;;6082732;23;20025;-84
2023/10/30 13:24:41;;;;;;;2.47;0.17;;;14.40;97.30;;;;;;6107211;23;20413;-83
2023/10/30 13:27:08;;;;;;;0.43;0.10;;;14.50;97.20;;;;;;6132680;23;20049;-84
2023/10/30 13:29:36;;;;;;;2.40;0.10;;;14.60;97.10;;;;;;6131188;23;20033;-83
2023/10/30 13:32:04;;;;;;;1.13;0.22;;;14.60;97.00;;;;;;6107199;23;20045;-84
2023/10/30 13:34:31;;;;;;;0.50;0.10;;;14.70;97.00;;;;;;6131490;23;20017;-84
2023/10/30 13:36:58;;;;;;;2.08;0.22;;;14.70;96.90;;;;;;6108106;23;20025;-84
2023/10/30 13:39:25;;;;;;;2.53;0.20;;;14.80;96.90;;;;;;6108760;23;20108;-84
2023/10/30 13:41:53;;;;;;;1.90;0.20;;;14.70;96.90;;;;;;6132555;23;20030;-84
2023/10/30 13:44:20;;;;;;;1.90;0.10;;;14.70;96.90;;;;;;6130971;23;20025;-84
2023/10/30 13:46:47;;;;;;;3.13;0.20;;;14.70;97.00;;;;;;6106806;23;20052;-83
2023/10/30 13:49:14;;;;;;;2.13;0.20;;;14.70;97.00;;;;;;6107033;23;20334;-84
2023/10/30 13:51:45;;;;;;;2.50;0.20;;;14.60;97.00;;;;;;6130970;23;20405;-85
2023/10/30 13:54:12;;;;;;;1.40;0.20;;;14.60;97.10;;;;;;6130917;23;20025;-85
2023/10/30 13:56:39;;;;;;;0.82;0.10;;;14.60;97.10;;;;;;6106416;23;20049;-84
2023/10/30 13:59:06;;;;;;;1.30;0.13;;;14.70;97.10;;;;;;6131288;23;20068;-84
2023/10/30 14:01:33;;;;;;;0.93;0.22;;;14.70;97.00;;;;;;6131033;23;20032;-85
2023/10/30 14:04:06;;;;;;;0.68;0.20;;;14.70;97.00;;;;;;6132928;23;20091;-89
2023/10/30 14:06:34;;;;;;;2.38;0.20;;;14.70;97.00;;;;;;6131503;23;20021;-88
2023/10/30 14:09:01;;;;;;;0.68;0.20;;;14.70;97.00;;;;;;6132497;23;20056;-89
2023/10/30 14:11:29;;;;;;;2.00;0.17;;;14.70;97.00;;;;;;6132150;23;20018;-86
2023/10/30 14:13:56;;;;;;;2.47;0.20;;;14.70;97.00;;;;;;6132177;23;20044;-86
2023/10/30 14:16:23;;;;;;;2.65;0.30;;;14.60;97.10;;;;;;6130507;23;20022;-85
2023/10/30 14:18:50;;;;;;;0.55;0.15;;;14.60;97.10;;;;;;6131340;23;20028;-84
2023/10/30 14:21:20;;;;;;;0.93;0.13;;;14.50;97.10;;;;;;6106673;23;20093;-86
2023/10/30 14:23:47;;;;;;;1.42;0.20;;;14.50;97.20;;;;;;6131681;23;20108;-84
2023/10/30 14:26:20;;;;;;;3.00;0.25;;;14.40;97.20;;;;;;6134722;23;20025;-88
2023/10/30 14:28:58;;;;;;;4.00;0.30;;;14.30;97.20;;;;;;6109860;23;20029;-86
2023/10/30 14:31:29;;;;;;;1.83;0.20;;;14.30;97.30;;;;;;6131969;23;20064;-89
2023/10/30 14:34:38;;;;;;;0.68;0.13;;;14.30;97.30;;;;;;6132277;23;20325;-89
2023/10/30 14:37:10;;;;;;;2.10;0.55;;;14.30;97.30;;;;;;6130496;23;20118;-86
2023/10/30 14:39:37;;;;;;;3.80;0.20;;;14.20;97.30;;;;;;6133593;23;20432;-86
2023/10/30 14:42:09;;;;;;;0.77;0.20;;;14.20;97.60;;;;;;6131365;23;20032;-84
2023/10/30 14:44:38;;;;;;;1.95;0.20;;;14.10;97.40;;;;;;6131179;23;20056;-81
2023/10/30 14:47:14;;;;;;;2.17;0.47;;;14.10;97.40;;;;;;6130902;23;20103;-85
2023/10/30 14:49:43;;;;;;;1.38;0.20;;;14.10;97.30;;;;;;6155399;23;20037;-88
2023/10/30 14:52:10;;;;;;;0.98;0.13;;;14.10;97.40;;;;;;6130739;23;20048;-87
2023/10/30 14:54:39;;;;;;;2.25;0.30;;;14.00;97.40;;;;;;6155653;23;20021;-88
2023/10/30 14:57:06;;;;;;;1.10;0.50;;;14.00;97.40;;;;;;6131083;23;20025;-89
2023/10/30 14:59:33;;;;;;;1.85;0.20;;;14.00;97.40;;;;;;6131374;23;20025;-89
2023/10/30 15:02:00;;;;;;;1.65;0.43;;;14.00;97.40;;;;;;6131184;23;20021;-89
2023/10/30 15:04:28;;;;;;;1.33;0.10;;;13.90;97.50;;;;;;6131196;23;20108;-90
2023/10/30 15:06:56;;;;;;;1.55;0.20;;;13.90;97.50;;;;;;6155933;23;20017;-89
2023/10/30 15:09:23;;;;;;;1.65;0.10;;;13.80;97.60;;;;;;6130965;23;20087;-83
2023/10/30 15:11:50;;;;;;;1.95;0.10;;;13.80;97.60;;;;;;6082127;23;20027;-84
2023/10/30 15:14:26;;;;;;;0.60;0.15;;;13.80;97.70;;;;;;6130717;23;20021;-86
2023/10/30 15:16:56;;;;;;;2.13;0.20;;;13.80;97.70;;;;;;6107699;23;20040;-87
2023/10/30 15:19:25;;;;;;;1.65;0.20;;;13.70;97.70;;;;;;6131938;23;20018;-87
2023/10/30 15:21:53;;;;;;;0.40;0.08;;;13.70;97.70;;;;;;6130861;23;20037;-87
2023/10/30 15:24:20;;;;;;;0.43;0.10;;;13.70;97.80;;;;;;6130703;23;20021;-87
2023/10/30 15:26:47;;;;;;;5.68;0.32;;;13.60;97.80;;;;;;6106804;23;20032;-87
2023/10/30 15:29:14;;;;;;;1.38;0.20;;;13.60;97.90;;;;;;6131536;23;20025;-87
2023/10/30 15:31:42;;;;;;;0.70;0.20;;;13.50;97.90;;;;;;6133074;23;20014;-87
2023/10/30 15:34:12;;;;;;;1.73;0.20;;;13.50;98.00;;;;;;6133295;23;20333;-82
2023/10/30 15:36:40;;;;;;;0.60;0.20;;;13.50;98.00;;;;;;6157275;23;20013;-84
2023/10/30 15:39:07;;;;;;;0.95;0.20;;;13.50;98.10;;;;;;6106879;23;20123;-82
2023/10/30 15:41:34;;;;;;;0.50;0.20;;;13.50;98.10;;;;;;6130628;23;20479;-87
2023/10/30 15:44:02;;;;;;;0.60;0.10;;;13.40;98.10;;;;;;6130940;23;20017;-87
2023/10/30 15:46:29;;;;;;;1.92;0.10;;;13.40;98.20;;;;;;6106790;23;20040;-90
2023/10/30 15:49:16;;;;;;;0.82;0.45;;;13.40;98.20;;;;;;6129895;23;20021;-84
2023/10/30 15:51:44;;;;;;;0.85;0.13;;;13.30;98.20;;;;;;6105689;23;20104;-84
2023/10/30 15:54:12;;;;;;;0.70;0.20;;;13.30;98.30;;;;;;6106512;23;20023;-85
2023/10/30 15:56:39;;;;;;;1.83;0.20;;;13.30;98.30;;;;;;6130542;23;20013;-85
2023/10/30 15:59:06;;;;;;;1.20;0.30;;;13.30;98.30;;;;;;6105560;23;20154;-85
2023/10/30 16:01:33;;;;;;;0.47;0.30;;;13.30;98.30;;;;;;6106118;23;20020;-85
2023/10/30 16:04:00;;;;;;;0.73;0.20;;;13.20;98.30;;;;;;6082144;23;20021;-85
2023/10/30 16:06:29;;;;;;;1.02;0.20;;;13.20;98.40;;;;;;6130714;23;20022;-86
2023/10/30 16:08:57;;;;;;;0.93;0.15;;;13.20;98.40;;;;;;6130407;23;20029;-85
2023/10/30 16:11:24;;;;;;;1.73;0.20;;;13.20;98.40;;;;;;6130017;23;20503;-84
2023/10/30 16:14:00;;;;;;;0.73;0.20;;;13.20;98.50;;;;;;6129927;23;20026;-87
2023/10/30 16:16:27;;;;;;;1.52;0.22;;;13.20;98.50;;;;;;6107716;23;20355;-86
2023/10/30 16:18:54;;;;;;;0.50;0.20;;;13.10;98.50;;;;;;6155070;23;20097;-84
2023/10/30 16:21:41;;;;;;;0.88;0.20;;;13.10;98.50;;;;;;6114971;23;20013;-86
2023/10/30 16:24:09;;;;;;;2.05;0.25;;;13.10;98.60;;;;;;6130560;23;20080;-83
2023/10/30 16:26:36;;;;;;;1.55;0.30;;;13.10;98.60;;;;;;6154578;23;20024;-86
2023/10/30 16:29:04;;;;;;;1.10;0.40;;;13.10;98.90;;;;;;6129609;23;20029;-83
2023/10/30 16:31:31;;;;;;;1.85;0.22;;;13.10;98.60;;;;;;6106326;23;20054;-84
2023/10/30 16:33:58;;;;;;;0.77;0.28;;;13.10;98.70;;;;;;6130235;23;20340;-85
2023/10/30 16:36:26;;;;;;;0.68;0.22;;;13.10;98.70;;;;;;6105539;23;20022;-84
2023/10/30 16:38:53;;;;;;;0.82;0.25;;;13.00;98.70;;;;;;6129869;23;20025;-85
2023/10/30 16:41:21;;;;;;;0.75;0.28;;;13.00;98.70;;;;;;6130689;23;20021;-84
2023/10/30 16:43:48;;;;;;;0.60;0.30;;;13.00;98.70;;;;;;6082613;23;20021;-85
2023/10/30 16:46:17;;;;;;;2.95;0.47;;;12.90;98.80;;;;;;6131121;23;20093;-84
2023/10/30 16:48:45;;;;;;;1.83;0.50;;;12.90;98.80;;;;;;6130693;23;20447;-85
2023/10/30 16:51:13;;;;;;;1.83;0.60;;;12.90;98.90;;;;;;6106600;23;20018;-85
2023/10/30 16:53:41;;;;;;;0.90;0.40;;;12.90;98.90;;;;;;6129949;23;20101;-85
2023/10/30 16:56:08;;;;;;;1.00;0.32;;;12.90;98.90;;;;;;6130483;23;20060;-86
2023/10/30 16:58:36;;;;;;;2.13;0.40;;;12.90;98.90;;;;;;6158006;23;20503;-85
2023/10/30 17:01:03;;;;;;;0.80;0.40;;;12.90;99.00;;;;;;6107364;23;20029;-84
2023/10/30 17:03:30;;;;;;;1.70;0.50;;;12.90;99.00;;;;;;6156148;23;20021;-86
2023/10/30 17:06:00;;;;;;;2.03;0.50;;;12.80;99.00;;;;;;6157073;23;20025;-87
2023/10/30 17:08:27;;;;;;;1.85;0.40;;;12.80;99.00;;;;;;6111212;23;20025;-86
2023/10/30 17:10:54;;;;;;;1.63;0.50;;;12.80;99.00;;;;;;6132444;23;20029;-85
2023/10/30 17:13:21;;;;;;;2.28;0.77;;;12.80;99.00;;;;;;6107415;23;20053;-84
2023/10/30 17:15:48;;;;;;;1.40;0.60;;;12.80;99.10;;;;;;6107638;23;20395;-86
2023/10/30 17:18:16;;;;;;;3.63;0.65;;;12.70;99.10;;;;;;6131947;23;20018;-86
2023/10/30 17:20:44;;;;;;;2.17;0.65;;;12.80;99.10;;;;;;6108153;23;20032;-87
2023/10/30 17:23:12;;;;;;;1.65;0.70;;;12.70;99.10;;;;;;6108852;23;20022;-87
2023/10/30 17:25:39;;;;;;;1.38;0.68;;;12.70;99.10;;;;;;6158956;23;20025;-88
2023/10/30 17:28:06;;;;;;;1.85;0.80;;;12.70;99.10;;;;;;6109881;23;20032;-88
2023/10/30 17:30:34;;;;;;;1.65;0.77;;;12.70;99.20;;;;;;6132943;23;20506;-82
2023/10/30 17:33:01;;;;;;;2.17;0.90;;;12.70;99.20;;;;;;6107688;23;20022;-85
2023/10/30 17:35:37;;;;;;;1.92;0.90;;;12.70;99.20;;;;;;6156534;23;20543;-84
2023/10/30 17:38:05;;;;;;;2.60;0.75;;;12.70;99.20;;;;;;6157974;23;20018;-87
2023/10/30 17:40:32;;;;;;;4.75;1.15;;;12.70;99.20;;;;;;6155643;23;20028;-84
2023/10/30 17:43:05;;;;;;;2.90;1.13;;;12.60;99.20;;;;;;6155662;23;20017;-83
2023/10/30 17:45:32;;;;;;;1.88;1.05;;;12.70;99.30;;;;;;6130615;23;20028;-83
2023/10/30 17:48:00;;;;;;;2.50;1.10;;;12.60;99.30;;;;;;6131064;23;20416;-84
2023/10/30 17:50:27;;;;;;;2.00;1.17;;;12.60;99.30;;;;;;6107157;23;20097;-86
2023/10/30 17:57:44;;;;;;;2.78;1.10;;;12.70;99.30;;;;;;6153025;23;20025;-87
2023/10/30 18:00:35;;;;;;;2.03;1.02;;;12.60;99.30;;;;;;6132556;23;20017;-87
2023/10/30 18:03:02;;;;;;;2.33;1.15;;;12.60;99.30;;;;;;6085066;23;20052;-87
2023/10/30 18:05:38;;;;;;;2.80;1.10;;;12.60;99.30;;;;;;6156611;23;20028;-87
2023/10/30 18:08:53;;;;;;;2.13;1.20;;;12.60;99.30;;;;;;6133587;23;20022;-87
2023/10/30 18:11:40;;;;;;;2.60;1.33;;;12.60;99.30;;;;;;6123029;23;20018;-94
2023/10/30 18:14:09;;;;;;;2.55;1.30;;;12.60;99.40;;;;;;6122181;23;20026;-88
2023/10/30 18:16:43;;;;;;;3.03;1.50;;;12.60;99.40;;;;;;6140116;23;20018;-83
2023/10/30 18:19:14;;;;;;;3.47;1.45;;;12.60;99.40;;;;;;6121691;23;20013;-87
2023/10/30 18:21:46;;;;;;;2.20;1.20;;;12.60;99.40;;;;;;6093133;23;20017;-87
2023/10/30 18:24:20;;;;;;;2.13;1.13;;;12.60;99.40;;;;;;6135403;23;20025;-88
2023/10/30 18:26:57;;;;;;;1.85;1.08;;;12.70;99.50;;;;;;6133656;23;20025;-86
2023/10/30 18:29:24;;;;;;;3.70;1.45;;;12.70;99.50;;;;;;6132470;23;20025;-85
2023/10/30 18:31:57;;;;;;;2.10;1.13;;;12.70;99.50;;;;;;6108775;23;20072;-86
2023/10/30 18:34:24;;;;;;;2.30;1.13;;;12.70;99.50;;;;;;6156175;23;20022;-85
2023/10/30 18:36:52;;;;;;;2.95;1.52;;;12.70;99.50;;;;;;6156951;23;20021;-88
2023/10/30 18:39:19;;;;;;;2.53;1.52;;;12.70;99.50;;;;;;6132205;23;20018;-88
2023/10/30 18:41:47;;;;;;;2.38;1.27;;;12.70;99.50;;;;;;6108025;23;20022;-86
2023/10/30 18:44:29;;;;;;;2.55;1.25;;;12.70;99.50;;;;;;6108365;23;20021;-85
2023/10/30 18:46:56;;;;;;;2.92;1.27;;;12.70;99.60;;;;;;6156486;23;20025;-84
2023/10/30 18:49:24;;;;;;;3.75;2.10;;;12.70;99.50;;;;;;6107704;23;20021;-85